x

Grand Traverse Light, Mi (gtlm4) Weather Station

3:40am - Sat 1st Oct 2016 All times are CDT. -5 hours from GMT.

  • Wind
    17mph, 23mph gusts
  • Air Temp 62°f
  • Sea Pressure 1021.7mb
  • Grand Traverse Light, Mi
  • Grand Traverse Light, Mi

More Historic Weather Station data

Upgrade to MSW Pro to gain access to the past 30 days of data for over 8000 Wavebouys and Weather Stations around the globe.

Join Pro

Comparision Forecast

View Surf forecast
   
Sat 10/01 3:40am 17 23 mph 1021.7mb 62f
3:30am 18 23 mph 1021.7mb 62f
3:20am 16 24 mph 1021.7mb 62f
3:10am 18 24 mph 1021.7mb 61f
3:00am 22 26 mph 1021.3mb 62f
2:40am 18 26 mph 1021.7mb 61f
2:30am 22 25 mph 1021.7mb 62f
2:20am 20 26 mph 1021.7mb 62f
2:10am 20 25 mph 1022mb 62f
2:00am 22 28 mph 1022mb 62f
1:40am 18 24 mph 1022.4mb 61f
1:30am 20 25 mph 1022.4mb 61f
1:20am 18 23 mph 1022.4mb 62f
1:10am 20 24 mph 1022.4mb 61f
1:00am 17 24 mph 1022.7mb 61f
12:40am 20 24 mph 1022.7mb 61f
12:30am 18 22 mph 1023mb 61f
12:20am 17 22 mph 1023mb 61f
12:10am 14 22 mph 1023mb 61f
12:00am 16 22 mph 1023mb 61f
Fri 09/30 11:40pm 14 22 mph 1023.4mb 60f
11:30pm 11 20 mph 1023.4mb 60f
11:20pm 8 17 mph 1023.4mb 60f
11:10pm 10 20 mph 1023.4mb 60f
11:00pm 10 23 mph 1023.4mb 60f
10:40pm 11 22 mph 1023.4mb 62f
10:30pm 10 18 mph 1023.4mb 62f
10:20pm 9 21 mph 1023.4mb 62f
10:10pm 9 22 mph 1023.4mb 62f
10:00pm 9 21 mph 1023.4mb 62f
9:40pm 14 23 mph 1023.4mb 62f
9:30pm 9 18 mph 1023.4mb 62f
9:20pm 13 21 mph 1023.7mb 62f
9:10pm 11 22 mph 1023.4mb 62f
9:00pm 11 24 mph 1023.4mb 62f
8:40pm 15 23 mph 1023.4mb 63f
8:30pm 11 23 mph 1023.4mb 63f
8:20pm 15 28 mph 1023.4mb 63f
8:10pm 14 23 mph 1023.7mb 63f
8:00pm 11 22 mph 1023.7mb 63f
7:40pm 15 22 mph 1023.7mb 63f
7:30pm 14 23 mph 1023.7mb 63f
7:20pm 16 24 mph 1023.7mb 63f
7:10pm 15 23 mph 1023.7mb 63f
7:00pm 20 24 mph 1023.7mb 63f
5:40pm 22 26 mph 1024mb 63f
5:30pm 21 26 mph 1023.7mb 64f
5:20pm 24 28 mph 1023.7mb 64f
5:10pm 23 28 mph 1024mb 64f
5:00pm 24 28 mph 1023.7mb 64f
4:40pm 26 31 mph 1023.4mb 64f
4:30pm 28 32 mph 1023.4mb 64f
4:20pm 28 32 mph 1023.4mb 65f
4:10pm 28 32 mph 1023.4mb 65f
4:00pm 28 31 mph 1023.4mb 65f
3:54pm 28 29 mph 1023.4mb 66f
3:40pm 23 25 mph 1023.7mb 66f
3:30pm 22 24 mph 1023.4mb 67f
3:20pm 20 23 mph 1023.7mb 67f
3:10pm 22 23 mph 1023.7mb 66f
3:00pm 20 22 mph 1023.7mb 68f
2:40pm 18 22 mph 1024mb 67f
2:30pm 21 23 mph 1024mb 66f
2:20pm 21 23 mph 1024mb 66f
2:10pm 20 23 mph 1024.4mb 66f
2:00pm 21 23 mph 1024.4mb 66f
1:40pm 15 18 mph 1024.7mb 67f
1:30pm 16 20 mph 1024.7mb 66f
1:20pm 18 20 mph 1024.7mb 65f
1:10pm 15 17 mph 1025.1mb 65f
1:00pm 15 20 mph 1025.4mb 66f
12:40pm 17 23 mph 1025.7mb 64f
12:30pm 18 22 mph 1025.7mb 64f
12:20pm 18 22 mph 1026.1mb 65f
12:10pm 17 21 mph 1026.1mb 66f
12:00pm 16 23 mph 1026.1mb 64f
11:40am 13 24 mph 1026.4mb 63f
11:30am 18 25 mph 1026.4mb 63f
11:20am 16 22 mph 1026.4mb 63f
11:10am 17 23 mph 1026.4mb 63f
11:00am 13 23 mph 1026.4mb 63f
10:40am 17 25 mph 1026.4mb 63f
10:30am 20 24 mph 1026.4mb 63f
10:20am 14 23 mph 1026.4mb 63f
10:10am 16 23 mph 1026.4mb 62f
10:00am 20 25 mph 1026.8mb 62f
9:40am 20 28 mph 1026.4mb 62f
9:30am 22 28 mph 1026.4mb 62f
9:20am 22 26 mph 1026.4mb 62f
9:10am 21 28 mph 1026.4mb 62f
9:00am 23 29 mph 1026.4mb 62f
8:40am 21 26 mph 1026.4mb 62f
8:30am 17 29 mph 1026.4mb 62f
8:20am 24 28 mph 1026.4mb 62f
8:10am 23 29 mph 1026.4mb 62f
8:00am 23 29 mph 1026.4mb 62f
7:54am 24 29 mph 1026.4mb 62f
7:40am 21 24 mph 1026.8mb 62f
7:30am 23 26 mph 1026.8mb 62f
7:20am 22 29 mph 1026.8mb 62f
7:10am 22 28 mph 1026.8mb 62f
7:00am 21 26 mph 1027.1mb 61f
6:40am 23 26 mph 1027.1mb 62f
6:30am 23 29 mph 1027.1mb 61f
6:20am 20 24 mph 1027.1mb 61f
6:10am 18 22 mph 1027.1mb 61f
6:00am 16 21 mph 1027.1mb 61f
5:40am 14 18 mph 1027.1mb 61f
5:30am 14 22 mph 1027.4mb 61f
5:20am 15 22 mph 1027.1mb 62f
5:10am 16 20 mph 1027.1mb 62f
5:00am 17 20 mph 1026.8mb 61f
4:40am 17 22 mph 1026.8mb 62f
4:30am 18 22 mph 1026.8mb 62f
4:20am 20 22 mph 1026.4mb 62f
4:10am 18 22 mph 1026.8mb 62f
4:00am 17 20 mph 1027.1mb 62f
3:50am 15 18 mph 1027.1mb 62f
3:40am 14 16 mph 1027.1mb 62f
3:30am 11 17 mph 1027.1mb 62f
3:20am 13 18 mph 1027.1mb 62f
3:10am 14 20 mph 1026.8mb 62f
3:00am 15 20 mph 1026.4mb 62f
2:50am 13 20 mph 1026.8mb 62f
2:40am 13 18 mph 1026.8mb 62f
2:30am 13 18 mph 1027.1mb 62f
2:20am 14 20 mph 1027.1mb 62f
2:10am 14 20 mph 1027.1mb 62f
2:00am 16 20 mph 1027.1mb 63f
1:50am 16 20 mph 1027.1mb 63f
1:40am 17 22 mph 1027.4mb 63f
1:30am 18 23 mph 1027.4mb 63f
1:20am 18 23 mph 1027.4mb 63f
1:10am 21 28 mph 1027.4mb 63f
1:00am 22 25 mph 1027.4mb 63f
12:50am 21 23 mph 1027.4mb 63f
12:40am 21 24 mph 1027.4mb 63f
12:30am 20 25 mph 1028.1mb 63f
12:20am 21 28 mph 1028.1mb 63f
12:10am 22 29 mph 1027.8mb 63f
12:00am 21 28 mph 1028.1mb 63f
Thu 09/29 11:50pm 21 28 mph 1028.1mb 63f
11:40pm 22 25 mph 1028.1mb 63f
11:30pm 20 26 mph 1028.1mb 63f
11:20pm 21 24 mph 1027.8mb 63f
11:10pm 21 23 mph 1028.1mb 63f
11:00pm 18 24 mph 1028.1mb 63f
10:50pm 20 22 mph 1028.1mb 63f
10:40pm 17 22 mph 1028.1mb 62f
10:30pm 17 21 mph 1028.4mb 63f
10:20pm 16 21 mph 1028.4mb 63f
10:10pm 15 21 mph 1028.4mb 63f
10:00pm 17 22 mph 1028.4mb 63f
9:50pm 15 22 mph 1028.4mb 64f
9:40pm 13 25 mph 1028.4mb 64f
9:30pm 21 25 mph 1028.4mb 64f
9:20pm 18 24 mph 1028.4mb 64f
9:10pm 21 24 mph 1028.1mb 64f
9:00pm 21 23 mph 1028.4mb 64f
8:50pm 20 23 mph 1028.4mb 64f
8:40pm 21 24 mph 1028.4mb 64f
8:30pm 21 24 mph 1028.4mb 64f
8:20pm 20 22 mph 1028.4mb 63f
8:10pm 18 22 mph 1028.4mb 63f
8:00pm 17 21 mph 1028.8mb 63f
7:50pm 17 20 mph 1028.8mb 63f
7:40pm 14 20 mph 1028.8mb 63f
7:30pm 15 21 mph 1028.8mb 63f
7:20pm 14 21 mph 1028.8mb 63f
7:10pm 17 23 mph 1028.8mb 63f
7:00pm 20 23 mph 1028.4mb 63f
6:50pm 17 24 mph 1028.8mb 63f
6:40pm 20 24 mph 1028.8mb 64f
6:30pm 20 26 mph 1028.4mb 64f
6:20pm 22 25 mph 1028.4mb 64f
6:10pm 22 25 mph 1028.4mb 64f
6:00pm 17 29 mph 1028.4mb 64f
5:50pm 23 31 mph 1028.1mb 65f
5:40pm 24 31 mph 1028.1mb 64f
5:38pm 23 31 mph 1027.8mb 65f
5:30pm 20 26 mph 1028.1mb 65f
5:20pm 20 28 mph 1028.1mb 65f
5:10pm 24 29 mph 1027.8mb 65f
5:00pm 24 28 mph 1027.8mb 65f
4:50pm 22 29 mph 1027.8mb 66f
4:40pm 25 30 mph 1027.8mb 66f
4:30pm 25 29 mph 1027.8mb 66f
4:20pm 24 29 mph 1027.8mb 66f
4:10pm 24 28 mph 1027.8mb 66f
4:00pm 24 30 mph 1027.4mb 66f
3:50pm 26 30 mph 1027.8mb 66f
3:40pm 26 29 mph 1027.4mb 66f
3:30pm 25 30 mph 1027.4mb 66f
3:20pm 26 29 mph 1027.4mb 66f
3:18pm 25 29 mph 1027.4mb 66f
3:10pm 24 29 mph 1027.4mb 66f
3:00pm 23 25 mph 1027.8mb 66f
2:50pm 24 25 mph 1027.8mb 66f
2:40pm 22 25 mph 1027.8mb 66f
2:30pm 21 24 mph 1027.8mb 66f
2:20pm 21 26 mph 1028.1mb 66f
2:10pm 22 26 mph 1028.1mb 66f
2:00pm 24 28 mph 1027.8mb 65f
1:50pm 23 26 mph 1028.1mb 65f
1:40pm 24 26 mph 1028.1mb 65f
1:30pm 26 29 mph 1028.1mb 65f
1:23pm 25 29 mph 1027.8mb 65f
1:20pm 25 28 mph 1027.8mb 65f
1:10pm 25 29 mph 1028.1mb 65f
1:00pm 24 26 mph 1028.4mb 65f
12:50pm 23 26 mph 1028.4mb 66f
12:40pm 24 28 mph 1028.8mb 66f
12:30pm 23 26 mph 1028.8mb 65f
12:20pm 23 26 mph 1028.8mb 65f
12:10pm 23 26 mph 1028.8mb 65f
12:00pm 24 26 mph 1028.8mb 65f
11:50am 23 28 mph 1028.8mb 64f
11:40am 23 26 mph 1028.8mb 64f
11:30am 22 25 mph 1028.8mb 65f
11:20am 22 25 mph 1028.8mb 64f
11:10am 23 25 mph 1028.8mb 64f
11:00am 22 23 mph 1028.4mb 65f
10:50am 20 22 mph 1028.4mb 65f
10:40am 20 23 mph 1028.8mb 65f
10:30am 21 24 mph 1028.8mb 65f
10:20am 20 23 mph 1028.8mb 65f
10:10am 17 21 mph 1028.4mb 65f
10:00am 17 23 mph 1028.4mb 65f
9:50am 16 22 mph 1028.4mb 64f
9:40am 17 21 mph 1028.4mb 64f
9:30am 16 22 mph 1028.4mb 64f
9:20am 16 21 mph 1028.1mb 64f
9:10am 17 22 mph 1028.1mb 63f
9:00am 17 22 mph 1028.1mb 63f
8:50am 18 22 mph 1028.1mb 62f
8:40am 16 22 mph 1028.1mb 62f
8:30am 20 23 mph 1028.1mb 61f
8:20am 20 23 mph 1028.1mb 61f
8:10am 20 24 mph 1028.1mb 61f
8:00am 17 24 mph 1028.1mb 61f
7:50am 16 24 mph 1028.1mb 61f
7:40am 20 23 mph 1027.8mb 61f
7:30am 16 22 mph 1027.8mb 60f
7:20am 20 24 mph 1027.4mb 61f
7:10am 18 23 mph 1027.4mb 61f
7:00am 17 25 mph 1027.1mb 61f
6:50am 18 24 mph 1027.1mb 61f
6:40am 20 25 mph 1026.8mb 61f
6:30am 21 25 mph 1026.8mb 61f
6:20am 20 24 mph 1026.4mb 61f
6:10am 22 25 mph 1026.1mb 61f
6:00am 22 25 mph 1026.1mb 61f
5:50am 21 24 mph 1026.1mb 61f
5:40am 21 24 mph 1026.1mb 61f
5:30am 20 23 mph 1025.7mb 61f
5:20am 18 24 mph 1025.7mb 61f
5:10am 21 24 mph 1025.7mb 61f
5:00am 20 24 mph 1025.4mb 61f
4:50am 21 24 mph 1025.7mb 61f
4:40am 21 23 mph 1025.4mb 61f
4:30am 21 24 mph 1025.4mb 61f
4:20am 21 24 mph 1025.4mb 61f
4:10am 20 23 mph 1025.4mb 61f
4:00am 17 24 mph 1025.4mb 62f
3:40am 21 26 mph 1025.1mb 62f
3:30am 21 25 mph 1025.1mb 62f
3:20am 23 26 mph 1025.1mb 62f
3:10am 21 24 mph 1025.1mb 62f
3:00am 21 24 mph 1025.1mb 62f
2:50am 21 23 mph 1024.7mb 62f
2:40am 21 23 mph 1024.7mb 62f
2:30am 18 23 mph 1024.7mb 62f
2:20am 21 24 mph 1024.7mb 62f
2:10am 21 24 mph 1024.7mb 62f
2:00am 18 24 mph 1024.4mb 62f
1:50am 23 26 mph 1024.4mb 62f
1:40am 22 25 mph 1024.4mb 62f
1:30am 22 25 mph 1024.4mb 63f
1:20am 20 25 mph 1024.4mb 63f
1:10am 22 25 mph 1024mb 63f
1:00am 22 25 mph 1024mb 64f
12:50am 20 24 mph 1024mb 64f
12:40am 20 23 mph 1024.4mb 64f
12:30am 21 24 mph 1024mb 64f
12:20am 23 26 mph 1024mb 64f
12:10am 23 28 mph 1024mb 64f
12:00am 24 26 mph 1024mb 64f
Wed 09/28 11:50pm 24 26 mph 1024mb 64f
11:40pm 23 26 mph 1024mb 64f
11:30pm 25 28 mph 1024mb 64f
11:20pm 25 28 mph 1023.7mb 64f
11:10pm 25 29 mph 1023.7mb 64f
11:00pm 26 30 mph 1023.7mb 64f
10:55pm 25 29 mph 1023.7mb 64f
10:40pm 25 28 mph 1023.7mb 64f
10:30pm 23 29 mph 1023.7mb 65f
10:20pm 24 28 mph 1023.7mb 65f
10:10pm 23 26 mph 1023.7mb 65f
10:00pm 24 26 mph 1023.4mb 65f
9:50pm 23 26 mph 1023.4mb 65f
9:40pm 23 25 mph 1023.4mb 65f
9:30pm 21 24 mph 1023.4mb 65f
9:20pm 21 23 mph 1023.4mb 65f
9:10pm 22 24 mph 1023.4mb 65f
9:00pm 20 23 mph 1023.4mb 65f
8:50pm 21 24 mph 1023.4mb 65f
8:40pm 20 23 mph 1023.4mb 65f
8:30pm 18 23 mph 1023mb 65f
8:20pm 21 24 mph 1023mb 65f
8:10pm 21 24 mph 1023mb 65f
8:00pm 20 25 mph 1022.7mb 65f
7:50pm 22 24 mph 1022.7mb 65f
7:40pm 22 25 mph 1022.4mb 64f
7:30pm 22 26 mph 1022.4mb 64f
7:20pm 22 26 mph 1022.4mb 64f
7:10pm 22 25 mph 1022.4mb 64f
7:00pm 22 24 mph 1022mb 64f
6:50pm 22 24 mph 1022mb 64f
6:40pm 20 23 mph 1021.7mb 64f
6:30pm 18 22 mph 1021.7mb 64f
6:20pm 20 22 mph 1021.7mb 64f
6:10pm 21 24 mph 1021.7mb 64f
6:00pm 20 22 mph 1021.7mb 65f
5:50pm 20 22 mph 1021.3mb 65f
5:40pm 18 22 mph 1021.3mb 65f
5:30pm 20 23 mph 1021mb 65f
5:20pm 20 25 mph 1021mb 65f
5:10pm 23 25 mph 1020.7mb 65f
5:00pm 21 24 mph 1020.7mb 65f
4:50pm 23 26 mph 1020.7mb 65f
4:40pm 22 25 mph 1020.3mb 65f
4:30pm 22 25 mph 1020.3mb 65f
4:20pm 22 24 mph 1020mb 65f
4:10pm 22 25 mph 1020mb 64f
4:00pm 22 24 mph 1020mb 64f
3:50pm 22 25 mph 1019.6mb 64f
3:40pm 23 25 mph 1019.6mb 64f
3:30pm 21 24 mph 1019.3mb 64f
3:20pm 22 25 mph 1019.3mb 64f
3:10pm 22 25 mph 1019.3mb 63f
3:00pm 22 24 mph 1019.3mb 64f
2:50pm 20 23 mph 1019mb 64f
2:40pm 21 23 mph 1019mb 64f
2:30pm 18 23 mph 1019mb 64f
2:20pm 20 23 mph 1018.6mb 64f
2:10pm 20 23 mph 1018.3mb 63f
2:00pm 18 24 mph 1018.3mb 63f
1:50pm 18 22 mph 1018.3mb 63f
1:40pm 18 21 mph 1018.3mb 63f
1:30pm 20 22 mph 1018.3mb 63f
1:20pm 18 22 mph 1018.3mb 63f
1:10pm 17 20 mph 1017.9mb 62f
1:00pm 16 18 mph 1017.9mb 63f
12:50pm 15 17 mph 1017.9mb 62f
12:40pm 15 16 mph 1017.9mb 62f
12:30pm 14 17 mph 1017.6mb 62f
12:20pm 14 16 mph 1017.6mb 62f
12:10pm 11 14 mph 1017.6mb 62f
12:00pm 11 14 mph 1017.6mb 62f
11:50am 9 11 mph 1017.3mb 62f
11:40am 9 10 mph 1017.3mb 63f
11:30am 10 13 mph 1017.3mb 62f
11:20am 9 11 mph 1017.3mb 62f
11:10am 8 11 mph 1016.9mb 61f
11:00am 8 13 mph 1016.9mb 61f
10:50am 8 11 mph 1016.9mb 60f
10:40am 8 13 mph 1016.9mb 60f
10:30am 10 13 mph 1016.9mb 59f
10:20am 10 11 mph 1016.9mb 60f
10:10am 7 11 mph 1016.6mb 59f
10:00am 10 11 mph 1016.6mb 59f
9:50am 8 11 mph 1016.3mb 59f
9:40am 7 10 mph 1016.3mb 57f
9:30am 7 10 mph 1015.9mb 56f
9:20am 5 10 mph 1015.9mb 56f
9:10am 6 10 mph 1015.6mb 56f
9:00am 5 9 mph 1015.6mb 55f
8:50am 5 8 mph 1015.2mb 55f
8:40am 7 13 mph 1015.2mb 54f
8:30am 6 11 mph 1014.9mb 54f
8:20am 3 9 mph 1014.6mb 54f
8:10am 5 10 mph 1014.6mb 54f
8:00am 5 10 mph 1014.2mb 54f
7:40am 6 10 mph 1013.9mb 53f
7:30am 2 10 mph 1013.9mb 53f
7:20am 6 13 mph 1013.5mb 53f
7:10am 7 13 mph 1013.5mb 53f
7:00am 8 14 mph 1013.2mb 53f
6:50am 6 11 mph 1013.2mb 53f
6:40am 5 10 mph 1012.9mb 53f
6:30am 3 9 mph 1012.5mb 52f
6:20am 5 8 mph 1012.2mb 52f
6:10am 7 9 mph 1012.2mb 53f
6:00am 6 10 mph 1012.2mb 53f
5:50am 7 10 mph 1011.9mb 53f
5:40am 5 9 mph 1011.9mb 53f
5:30am 3 11 mph 1011.9mb 52f
5:20am 3 10 mph 1011.5mb 52f
5:10am 3 8 mph 1011.5mb 52f
5:00am 3 10 mph 1011.2mb 51f
4:50am 3 9 mph 1011.2mb 51f
4:40am 5 8 mph 1010.8mb 52f
4:30am 3 11 mph 1010.8mb 51f
4:20am 3 9 mph 1010.5mb 52f
4:10am 3 8 mph 1010.5mb 52f
4:00am 5 8 mph 1010.5mb 52f
3:50am 5 8 mph 1010.2mb 52f
3:40am 5 8 mph 1010.2mb 52f
3:30am 5 9 mph 1009.8mb 52f
3:20am 3 7 mph 1009.8mb 52f
3:10am 3 7 mph 1009.8mb 52f
3:00am 5 8 mph 1009.8mb 51f
2:50am 3 9 mph 1009.5mb 51f
2:40am 3 9 mph 1009.5mb 51f
2:30am 3 7 mph 1009.1mb 51f
1:40am 3 7 mph 1008.5mb 52f
1:30am 5 7 mph 1008.5mb 52f
1:20am 3 8 mph 1008.5mb 52f
1:10am 5 10 mph 1008.5mb 53f
1:00am 5 10 mph 1008.1mb 53f
12:50am 7 10 mph 1008.1mb 53f
12:40am 7 10 mph 1007.8mb 52f
12:30am 5 9 mph 1007.8mb 52f
12:20am 6 9 mph 1007.8mb 52f
12:10am 5 9 mph 1007.5mb 52f
12:00am 6 9 mph 1007.5mb 52f
Tue 09/27 11:50pm 5 9 mph 1007.5mb 52f
11:40pm 5 7 mph 1007.5mb 52f
11:30pm 5 9 mph 1007.5mb 52f
11:20pm 5 9 mph 1007.5mb 52f
11:10pm 5 8 mph 1007.1mb 52f
11:00pm 3 8 mph 1007.1mb 52f
10:50pm 5 7 mph 1007.1mb 52f
10:40pm 5 8 mph 1007.1mb 52f
10:30pm 5 8 mph 1007.1mb 52f
10:20pm 5 8 mph 1007.1mb 52f
10:10pm 6 9 mph 1006.8mb 52f
9:40pm 6 9 mph 1006.8mb 51f
9:30pm 6 9 mph 1006.4mb 51f
9:20pm 6 8 mph 1006.4mb 51f
9:10pm 5 10 mph 1006.4mb 51f
9:00pm 6 9 mph 1006.4mb 51f
8:50pm 6 9 mph 1006.4mb 51f
8:40pm 6 8 mph 1006.1mb 51f
8:30pm 6 9 mph 1006.1mb 51f
8:20pm 7 10 mph 1006.1mb 51f
8:10pm 7 9 mph 1006.1mb 51f
8:00pm 6 10 mph 1006.1mb 51f
7:50pm 6 11 mph 1006.1mb 51f
7:40pm 7 13 mph 1006.1mb 51f
7:30pm 8 13 mph 1006.1mb 51f
7:20pm 7 10 mph 1005.8mb 51f
7:10pm 7 10 mph 1005.8mb 51f
7:00pm 6 13 mph 1005.8mb 51f
6:50pm 7 14 mph 1005.8mb 52f
6:40pm 8 13 mph 1005.4mb 52f
6:30pm 8 14 mph 1005.4mb 52f
6:20pm 8 13 mph 1005.1mb 52f
6:10pm 7 16 mph 1005.1mb 52f
6:00pm 7 11 mph 1005.1mb 53f
5:50pm 9 23 mph 1005.1mb 55f
5:40pm 17 23 mph 1005.1mb 55f
5:30pm 17 21 mph 1004.7mb 55f
5:20pm 17 22 mph 1004.7mb 54f
5:10pm 21 25 mph 1004.7mb 54f
5:00pm 18 23 mph 1004.4mb 54f
4:50pm 20 23 mph 1004.4mb 54f
4:40pm 20 24 mph 1004.4mb 55f
4:30pm 21 28 mph 1004.1mb 55f
4:20pm 23 26 mph 1004.1mb 55f
4:10pm 22 29 mph 1004.1mb 55f
4:00pm 20 25 mph 1004.1mb 55f
3:50pm 23 30 mph 1003.7mb 55f
3:40pm 22 28 mph 1003.7mb 55f
3:30pm 25 29 mph 1003.7mb 55f
3:22pm 24 29 mph 1003.4mb 55f
3:20pm 25 29 mph 1003.4mb 55f
3:10pm 22 30 mph 1003.4mb 55f
3:00pm 24 28 mph 1003.4mb 55f
2:50pm 22 28 mph 1003mb 55f
2:40pm 23 25 mph 1003mb 54f
2:30pm 22 29 mph 1003mb 54f
2:22pm 21 29 mph 1002.7mb 55f
2:20pm 20 26 mph 1002.7mb 55f
2:10pm 24 28 mph 1002.7mb 56f
2:00pm 22 24 mph 1002.4mb 56f
1:50pm 21 26 mph 1002.4mb 55f
1:40pm 21 30 mph 1002.4mb 55f
1:30pm 21 28 mph 1002.4mb 56f
1:20pm 22 29 mph 1002.4mb 56f
1:10pm 25 30 mph 1002mb 57f
1:00pm 26 29 mph 1002mb 58f
12:59pm 25 29 mph 1002mb 59f
12:50pm 24 31 mph 1002mb 58f
12:40pm 25 31 mph 1002mb 58f
12:30pm 28 32 mph 1002mb 58f
12:20pm 26 31 mph 1002mb 58f
12:10pm 25 32 mph 1002mb 58f
12:00pm 26
mph
1002mb 57f
11:50am 26 30 mph 1001.7mb 55f
11:40am 24 31 mph 1002.4mb 55f
11:30am 29 31 mph 1002mb 57f
11:20am 24 32 mph 1002mb 58f
11:10am 30 33 mph 1002mb 58f
11:00am 26 33 mph 1002mb 58f
10:50am 29 33 mph 1001.7mb 57f
10:45am 29
mph
1001.7mb 57f
10:40am 28 33 mph 1001.7mb 57f
10:30am 29 32 mph 1002mb 57f
10:20am 26 33 mph 1001.7mb 57f
10:10am 29 34 mph 1001.7mb 57f
10:00am 30 38 mph 1001.7mb 58f
9:50am 31 37 mph 1001.7mb 58f
9:44am 32
mph
1001.7mb 58f
9:40am 32 38 mph 1001.7mb 58f